sensor_id;sensor_type;location;lat;lon;timestamp;temperature;humidity
41080;DHT22;26826;50.718;7.114;2022-08-20T00:01:20;21.70;99.90
41080;DHT22;26826;50.718;7.114;2022-08-20T00:11:25;21.70;99.90
41080;DHT22;26826;50.718;7.114;2022-08-20T00:21:26;21.80;99.90
41080;DHT22;26826;50.718;7.114;2022-08-20T00:31:27;21.80;99.90
41080;DHT22;26826;50.718;7.114;2022-08-20T00:41:28;21.80;99.90
41080;DHT22;26826;50.718;7.114;2022-08-20T00:51:38;21.00;99.90
41080;DHT22;26826;50.718;7.114;2022-08-20T01:01:40;20.30;99.90
41080;DHT22;26826;50.718;7.114;2022-08-20T01:11:41;20.10;99.90
41080;DHT22;26826;50.718;7.114;2022-08-20T01:21:42;19.80;99.90
41080;DHT22;26826;50.718;7.114;2022-08-20T01:31:43;19.50;99.90
41080;DHT22;26826;50.718;7.114;2022-08-20T01:51:56;19.40;99.90
41080;DHT22;26826;50.718;7.114;2022-08-20T02:01:58;19.20;99.90
41080;DHT22;26826;50.718;7.114;2022-08-20T02:11:59;19.20;99.90
41080;DHT22;26826;50.718;7.114;2022-08-20T02:22:03;19.20;99.90
41080;DHT22;26826;50.718;7.114;2022-08-20T02:32:06;19.00;99.90
41080;DHT22;26826;50.718;7.114;2022-08-20T02:42:08;19.00;99.90
41080;DHT22;26826;50.718;7.114;2022-08-20T02:52:08;19.00;99.90
41080;DHT22;26826;50.718;7.114;2022-08-20T03:02:09;19.10;99.90
41080;DHT22;26826;50.718;7.114;2022-08-20T03:12:11;19.00;99.90
41080;DHT22;26826;50.718;7.114;2022-08-20T03:22:11;19.10;99.90
41080;DHT22;26826;50.718;7.114;2022-08-20T03:32:12;19.30;99.90
41080;DHT22;26826;50.718;7.114;2022-08-20T03:42:12;19.40;99.90
41080;DHT22;26826;50.718;7.114;2022-08-20T03:52:13;19.30;99.90
41080;DHT22;26826;50.718;7.114;2022-08-20T04:02:15;19.60;99.90
41080;DHT22;26826;50.718;7.114;2022-08-20T04:12:15;19.50;99.90
41080;DHT22;26826;50.718;7.114;2022-08-20T04:22:16;19.50;99.90
41080;DHT22;26826;50.718;7.114;2022-08-20T04:32:16;19.40;99.90
41080;DHT22;26826;50.718;7.114;2022-08-20T04:42:17;19.60;99.90
41080;DHT22;26826;50.718;7.114;2022-08-20T04:52:17;19.50;99.90
41080;DHT22;26826;50.718;7.114;2022-08-20T05:02:19;19.60;99.90
41080;DHT22;26826;50.718;7.114;2022-08-20T05:12:20;19.70;99.90
41080;DHT22;26826;50.718;7.114;2022-08-20T05:22:21;19.60;99.90
41080;DHT22;26826;50.718;7.114;2022-08-20T05:32:22;19.70;99.90
41080;DHT22;26826;50.718;7.114;2022-08-20T05:42:22;19.70;99.90
41080;DHT22;26826;50.718;7.114;2022-08-20T05:52:23;19.80;99.90
41080;DHT22;26826;50.718;7.114;2022-08-20T06:12:27;19.90;99.90
41080;DHT22;26826;50.718;7.114;2022-08-20T06:22:27;19.90;99.90
41080;DHT22;26826;50.718;7.114;2022-08-20T06:32:28;19.70;99.90
41080;DHT22;26826;50.718;7.114;2022-08-20T06:42:28;19.60;99.90
41080;DHT22;26826;50.718;7.114;2022-08-20T06:52:29;19.70;99.90
41080;DHT22;26826;50.718;7.114;2022-08-20T07:02:29;19.80;99.90
41080;DHT22;26826;50.718;7.114;2022-08-20T07:12:30;20.20;99.90
41080;DHT22;26826;50.718;7.114;2022-08-20T07:22:30;20.30;99.90
41080;DHT22;26826;50.718;7.114;2022-08-20T07:32:35;20.40;99.90
41080;DHT22;26826;50.718;7.114;2022-08-20T07:42:38;20.30;99.90
41080;DHT22;26826;50.718;7.114;2022-08-20T07:52:39;20.30;99.90
41080;DHT22;26826;50.718;7.114;2022-08-20T08:02:40;20.50;99.90
41080;DHT22;26826;50.718;7.114;2022-08-20T08:12:45;21.50;99.90
41080;DHT22;26826;50.718;7.114;2022-08-20T08:22:48;21.70;99.90
41080;DHT22;26826;50.718;7.114;2022-08-20T08:32:49;21.60;99.90
41080;DHT22;26826;50.718;7.114;2022-08-20T08:43:11;22.50;99.90
41080;DHT22;26826;50.718;7.114;2022-08-20T08:53:21;23.70;99.90
41080;DHT22;26826;50.718;7.114;2022-08-20T09:03:27;24.00;99.90
41080;DHT22;26826;50.718;7.114;2022-08-20T09:13:29;24.40;99.90
41080;DHT22;26826;50.718;7.114;2022-08-20T09:23:29;24.00;99.90
41080;DHT22;26826;50.718;7.114;2022-08-20T09:33:30;23.80;99.90
41080;DHT22;26826;50.718;7.114;2022-08-20T09:43:31;24.50;99.90
41080;DHT22;26826;50.718;7.114;2022-08-20T09:53:31;24.70;99.90
41080;DHT22;26826;50.718;7.114;2022-08-20T10:03:32;26.00;99.90
41080;DHT22;26826;50.718;7.114;2022-08-20T10:13:32;27.00;99.90
41080;DHT22;26826;50.718;7.114;2022-08-20T10:23:38;26.60;99.90
41080;DHT22;26826;50.718;7.114;2022-08-20T10:34:19;25.50;99.90
41080;DHT22;26826;50.718;7.114;2022-08-20T10:44:20;27.00;99.90
41080;DHT22;26826;50.718;7.114;2022-08-20T10:54:20;27.50;99.90
41080;DHT22;26826;50.718;7.114;2022-08-20T11:04:21;27.40;99.90
41080;DHT22;26826;50.718;7.114;2022-08-20T11:14:22;29.10;98.30
41080;DHT22;26826;50.718;7.114;2022-08-20T11:24:22;28.80;97.90
41080;DHT22;26826;50.718;7.114;2022-08-20T11:34:23;28.20;98.10
41080;DHT22;26826;50.718;7.114;2022-08-20T11:44:26;28.70;97.50
41080;DHT22;26826;50.718;7.114;2022-08-20T11:54:27;27.60;97.40
41080;DHT22;26826;50.718;7.114;2022-08-20T12:04:28;27.60;97.70
41080;DHT22;26826;50.718;7.114;2022-08-20T12:14:28;29.20;96.20
41080;DHT22;26826;50.718;7.114;2022-08-20T12:24:29;28.30;96.60
41080;DHT22;26826;50.718;7.114;2022-08-20T12:34:30;27.90;97.00
41080;DHT22;26826;50.718;7.114;2022-08-20T12:44:30;27.10;97.40
41080;DHT22;26826;50.718;7.114;2022-08-20T12:54:31;28.50;95.80
41080;DHT22;26826;50.718;7.114;2022-08-20T13:04:32;29.30;94.00
41080;DHT22;26826;50.718;7.114;2022-08-20T13:14:32;29.00;93.30
41080;DHT22;26826;50.718;7.114;2022-08-20T13:24:33;29.10;93.20
41080;DHT22;26826;50.718;7.114;2022-08-20T13:34:33;30.00;92.00
41080;DHT22;26826;50.718;7.114;2022-08-20T13:44:34;29.50;91.90
41080;DHT22;26826;50.718;7.114;2022-08-20T13:54:34;28.80;91.70
41080;DHT22;26826;50.718;7.114;2022-08-20T14:04:35;28.80;91.20
41080;DHT22;26826;50.718;7.114;2022-08-20T14:14:36;29.10;90.10
41080;DHT22;26826;50.718;7.114;2022-08-20T14:24:36;28.90;87.60
41080;DHT22;26826;50.718;7.114;2022-08-20T14:34:38;28.80;88.80
41080;DHT22;26826;50.718;7.114;2022-08-20T14:44:39;29.30;88.50
41080;DHT22;26826;50.718;7.114;2022-08-20T14:54:40;29.00;85.70
41080;DHT22;26826;50.718;7.114;2022-08-20T15:04:42;29.20;85.50
41080;DHT22;26826;50.718;7.114;2022-08-20T15:14:42;29.20;85.30
41080;DHT22;26826;50.718;7.114;2022-08-20T15:24:43;29.20;83.10
41080;DHT22;26826;50.718;7.114;2022-08-20T15:34:44;28.80;82.90
41080;DHT22;26826;50.718;7.114;2022-08-20T15:44:45;28.30;83.70
41080;DHT22;26826;50.718;7.114;2022-08-20T15:54:46;28.00;83.60
41080;DHT22;26826;50.718;7.114;2022-08-20T16:15:13;28.20;79.60
41080;DHT22;26826;50.718;7.114;2022-08-20T16:25:16;27.90;78.60
41080;DHT22;26826;50.718;7.114;2022-08-20T16:35:29;27.50;78.80
41080;DHT22;26826;50.718;7.114;2022-08-20T16:45:56;27.00;79.40
41080;DHT22;26826;50.718;7.114;2022-08-20T16:55:59;26.70;81.80
41080;DHT22;26826;50.718;7.114;2022-08-20T17:05:59;26.20;84.00
41080;DHT22;26826;50.718;7.114;2022-08-20T17:16:06;26.00;85.10
41080;DHT22;26826;50.718;7.114;2022-08-20T17:36:20;25.70;85.10
41080;DHT22;26826;50.718;7.114;2022-08-20T17:46:22;25.60;85.00
41080;DHT22;26826;50.718;7.114;2022-08-20T17:56:31;25.10;85.60
41080;DHT22;26826;50.718;7.114;2022-08-20T18:06:54;24.70;86.80
41080;DHT22;26826;50.718;7.114;2022-08-20T18:17:27;24.40;86.90
41080;DHT22;26826;50.718;7.114;2022-08-20T18:27:37;24.20;87.50
41080;DHT22;26826;50.718;7.114;2022-08-20T18:37:40;24.00;88.40
41080;DHT22;26826;50.718;7.114;2022-08-20T18:47:43;23.70;89.40
41080;DHT22;26826;50.718;7.114;2022-08-20T18:57:54;23.60;90.20
41080;DHT22;26826;50.718;7.114;2022-08-20T19:07:59;23.30;90.70
41080;DHT22;26826;50.718;7.114;2022-08-20T19:18:20;23.10;91.30
41080;DHT22;26826;50.718;7.114;2022-08-20T19:28:30;22.90;91.90
41080;DHT22;26826;50.718;7.114;2022-08-20T19:38:32;22.60;92.50
41080;DHT22;26826;50.718;7.114;2022-08-20T19:48:52;22.40;92.90
41080;DHT22;26826;50.718;7.114;2022-08-20T19:59:02;22.20;93.70
41080;DHT22;26826;50.718;7.114;2022-08-20T20:09:20;21.80;94.10
41080;DHT22;26826;50.718;7.114;2022-08-20T20:19:24;21.70;95.00
41080;DHT22;26826;50.718;7.114;2022-08-20T20:29:27;21.40;95.80
41080;DHT22;26826;50.718;7.114;2022-08-20T20:39:42;21.20;96.40
41080;DHT22;26826;50.718;7.114;2022-08-20T20:50:02;21.10;97.30
41080;DHT22;26826;50.718;7.114;2022-08-20T21:00:10;20.90;98.10
41080;DHT22;26826;50.718;7.114;2022-08-20T21:10:14;20.90;98.70
41080;DHT22;26826;50.718;7.114;2022-08-20T21:20:16;20.60;99.90
41080;DHT22;26826;50.718;7.114;2022-08-20T21:30:22;20.20;99.90
41080;DHT22;26826;50.718;7.114;2022-08-20T21:40:32;20.00;99.90
41080;DHT22;26826;50.718;7.114;2022-08-20T21:50:37;20.00;99.90
41080;DHT22;26826;50.718;7.114;2022-08-20T22:01:03;19.70;99.90
41080;DHT22;26826;50.718;7.114;2022-08-20T22:11:06;19.50;99.90
41080;DHT22;26826;50.718;7.114;2022-08-20T22:21:13;19.50;99.90
41080;DHT22;26826;50.718;7.114;2022-08-20T22:31:17;19.50;99.90
41080;DHT22;26826;50.718;7.114;2022-08-20T22:41:20;19.40;99.90
41080;DHT22;26826;50.718;7.114;2022-08-20T22:51:30;19.30;99.90
41080;DHT22;26826;50.718;7.114;2022-08-20T23:01:31;19.20;99.90
41080;DHT22;26826;50.718;7.114;2022-08-20T23:11:32;19.10;99.90
41080;DHT22;26826;50.718;7.114;2022-08-20T23:21:32;19.10;99.90
41080;DHT22;26826;50.718;7.114;2022-08-20T23:31:33;18.90;99.90
41080;DHT22;26826;50.718;7.114;2022-08-20T23:41:34;18.90;99.90
41080;DHT22;26826;50.718;7.114;2022-08-20T23:51:34;18.70;99.90
